Time;durP1;ratioP1;P1;durP2;ratioP2;P2;SDS_P1;SDS_P2;PMS_P1;PMS_P2;Temp;Humidity;BMP_temperature;BMP_pressure;BME280_temperature;BME280_humidity;BME280_pressure;Samples;Min_cycle;Max_cycle;Signal;HPM_P1;HPM_P2
2021/10/18 00:02:46;;;;;;;17.50;10.10;;;;;;;9.42;67.28;100578.64;139452;1193;108207;-82
2021/10/18 00:05:51;;;;;;;17.30;10.30;;;;;;;9.40;67.32;100580.98;139260;1192;108360;-83
2021/10/18 00:08:57;;;;;;;15.70;10.00;;;;;;;9.36;67.49;100580.58;138954;1192;108606;-81
2021/10/18 00:12:02;;;;;;;15.20;9.70;;;;;;;9.32;67.29;100576.58;139061;1193;108542;-80
2021/10/18 00:15:11;;;;;;;17.60;9.80;;;;;;;9.26;67.47;100575.54;139091;1192;108475;-78
2021/10/18 00:18:16;;;;;;;17.60;10.70;;;;;;;9.20;67.51;100574.23;138949;1193;108450;-79
2021/10/18 00:21:22;;;;;;;15.60;9.70;;;;;;;9.16;67.63;100573.88;138948;1183;108593;-78
2021/10/18 00:24:27;;;;;;;15.00;8.30;;;;;;;9.15;67.68;100573.42;138932;1193;108569;-76
2021/10/18 00:27:33;;;;;;;14.70;8.60;;;;;;;9.16;67.68;100572.45;138887;1193;108499;-76
2021/10/18 00:30:38;;;;;;;18.00;10.00;;;;;;;9.21;67.61;100577.88;138901;1193;108764;-76
2021/10/18 00:33:43;;;;;;;16.00;10.70;;;;;;;9.28;67.64;100578.52;139048;1192;108424;-79
2021/10/18 00:36:49;;;;;;;20.20;10.80;;;;;;;9.32;67.69;100577.81;139535;1193;108644;-80
2021/10/18 00:39:54;;;;;;;21.40;11.50;;;;;;;9.34;67.59;100577.09;139117;1192;108538;-81
2021/10/18 00:43:00;;;;;;;19.20;10.90;;;;;;;9.36;67.77;100583.06;139030;1194;108496;-79
2021/10/18 00:46:06;;;;;;;18.10;11.20;;;;;;;9.37;67.65;100582.86;139049;1193;108422;-80
2021/10/18 00:49:11;;;;;;;18.10;11.20;;;;;;;9.34;67.75;100585.02;139058;1193;107473;-80
2021/10/18 00:52:20;;;;;;;19.30;11.40;;;;;;;9.31;67.69;100579.48;139066;1193;108721;-80
2021/10/18 00:55:25;;;;;;;19.20;9.20;;;;;;;9.26;67.85;100579.36;138924;1192;107543;-79
2021/10/18 00:58:32;;;;;;;16.80;9.30;;;;;;;9.25;67.99;100577.49;139069;1193;108375;-84
2021/10/18 01:01:38;;;;;;;18.90;11.60;;;;;;;9.29;67.95;100574.35;139023;1196;108497;-85
2021/10/18 01:04:43;;;;;;;22.80;11.00;;;;;;;9.33;68.05;100576.95;139009;1192;106846;-84
2021/10/18 01:07:49;;;;;;;18.90;10.90;;;;;;;9.39;67.92;100577.14;139058;1193;108418;-82
2021/10/18 01:10:55;;;;;;;16.20;9.80;;;;;;;9.40;67.99;100576.34;138999;1192;108390;-83
2021/10/18 01:14:00;;;;;;;19.30;11.00;;;;;;;9.42;67.95;100575.30;139069;1192;108299;-79
2021/10/18 01:17:06;;;;;;;19.80;11.00;;;;;;;9.40;67.95;100576.31;138965;1193;108541;-77
2021/10/18 01:20:20;;;;;;;17.50;10.60;;;;;;;9.38;68.04;100575.10;138898;1193;108548;-79
2021/10/18 01:23:26;;;;;;;19.50;11.10;;;;;;;9.36;68.14;100579.34;138962;1193;108605;-79
2021/10/18 01:26:31;;;;;;;16.70;9.70;;;;;;;9.33;68.21;100577.54;138960;1193;108653;-78
2021/10/18 01:29:38;;;;;;;17.60;9.60;;;;;;;9.31;68.19;100579.42;138891;1193;108258;-79
2021/10/18 01:32:44;;;;;;;20.10;11.00;;;;;;;9.31;68.40;100584.56;138901;1193;106888;-80
2021/10/18 01:35:49;;;;;;;22.20;11.50;;;;;;;9.35;68.47;100583.03;139085;1193;108099;-81
2021/10/18 01:38:54;;;;;;;22.50;12.60;;;;;;;9.38;68.65;100584.36;139014;1198;108525;-77
2021/10/18 01:42:00;;;;;;;24.20;12.20;;;;;;;9.42;68.35;100578.11;138892;1192;108395;-75
2021/10/18 01:45:07;;;;;;;31.70;16.40;;;;;;;9.44;68.45;100579.55;138979;1192;108495;-77
2021/10/18 01:48:12;;;;;;;23.00;12.70;;;;;;;9.41;68.58;100583.89;138965;1193;108386;-79
2021/10/18 01:51:18;;;;;;;25.10;13.60;;;;;;;9.36;68.38;100582.02;139109;1193;108487;-77
2021/10/18 01:54:23;;;;;;;22.70;12.10;;;;;;;9.34;68.69;100578.47;138951;1193;108267;-79
2021/10/18 01:57:29;;;;;;;24.80;15.10;;;;;;;9.30;69.01;100584.17;139007;1193;107200;-78
2021/10/18 02:00:34;;;;;;;24.60;11.70;;;;;;;9.27;68.81;100584.27;138930;1194;108555;-81
2021/10/18 02:03:39;;;;;;;17.40;10.40;;;;;;;9.29;68.85;100586.77;139116;1191;108495;-81
2021/10/18 02:06:45;;;;;;;20.10;11.20;;;;;;;9.31;69.00;100589.02;139048;1193;108376;-80
2021/10/18 02:09:52;;;;;;;18.00;10.90;;;;;;;9.36;69.25;100587.73;138928;1198;108315;-78
2021/10/18 02:12:58;;;;;;;34.30;12.80;;;;;;;9.40;69.07;100588.28;139137;1193;108405;-79
2021/10/18 02:16:03;;;;;;;17.80;11.30;;;;;;;9.41;69.32;100586.58;139148;1193;108416;-79
2021/10/18 02:19:09;;;;;;;17.40;11.20;;;;;;;9.38;69.40;100586.43;139092;1193;107850;-79
2021/10/18 02:22:14;;;;;;;16.70;10.40;;;;;;;9.37;69.39;100589.44;139059;1193;108397;-79
2021/10/18 02:25:19;;;;;;;16.90;9.50;;;;;;;9.33;69.64;100587.29;139099;1191;108764;-81
2021/10/18 02:28:28;;;;;;;17.40;9.30;;;;;;;9.30;69.63;100583.27;139022;1193;108511;-79
2021/10/18 02:31:34;;;;;;;18.90;10.40;;;;;;;9.32;69.77;100585.06;139076;1194;108549;-80
2021/10/18 02:34:39;;;;;;;18.10;10.50;;;;;;;9.35;69.77;100588.89;139057;1183;108499;-78
2021/10/18 02:37:45;;;;;;;18.50;10.50;;;;;;;9.37;69.98;100588.28;138969;1194;108594;-78
2021/10/18 02:40:50;;;;;;;16.90;10.70;;;;;;;9.38;70.27;100590.33;138940;1193;108528;-78
2021/10/18 02:43:55;;;;;;;15.10;10.10;;;;;;;9.39;70.09;100593.28;138981;1192;108420;-79
2021/10/18 02:47:01;;;;;;;16.70;11.10;;;;;;;9.40;70.37;100603.90;138976;1193;107162;-79
2021/10/18 02:50:08;;;;;;;16.50;9.60;;;;;;;9.35;70.40;100603.64;138918;1193;108662;-79
2021/10/18 02:53:13;;;;;;;18.20;9.60;;;;;;;9.34;70.75;100608.16;139088;1194;108452;-84
2021/10/18 02:56:18;;;;;;;17.10;10.50;;;;;;;9.34;70.96;100612.06;139066;1192;108612;-80
2021/10/18 02:59:24;;;;;;;16.50;10.30;;;;;;;9.36;71.03;100613.99;139041;1193;107160;-81
2021/10/18 03:02:29;;;;;;;16.00;10.10;;;;;;;9.34;71.92;100614.15;139058;1197;108378;-79
2021/10/18 03:05:35;;;;;;;21.50;10.90;;;;;;;9.34;71.63;100612.59;138973;1193;108623;-80
2021/10/18 03:08:42;;;;;;;16.50;9.10;;;;;;;9.32;71.41;100610.95;139096;1177;108390;-79
2021/10/18 03:11:48;;;;;;;27.20;16.40;;;;;;;9.36;71.33;100613.46;139127;1193;107439;-80
2021/10/18 03:14:53;;;;;;;21.80;12.20;;;;;;;9.42;71.64;100615.59;139308;1190;108414;-79
2021/10/18 03:17:58;;;;;;;17.20;10.20;;;;;;;9.48;72.34;100613.80;139114;1190;108549;-80
2021/10/18 03:21:04;;;;;;;21.10;11.90;;;;;;;9.48;72.07;100610.64;139059;1190;108590;-79
2021/10/18 03:24:09;;;;;;;18.50;10.40;;;;;;;9.49;72.57;100610.06;139121;1190;108536;-80
2021/10/18 03:27:15;;;;;;;15.50;10.40;;;;;;;9.43;72.57;100614.62;139124;1190;108389;-83
2021/10/18 03:30:20;;;;;;;15.20;9.40;;;;;;;9.42;72.28;100611.64;139110;1190;108572;-83
2021/10/18 03:33:26;;;;;;;17.20;10.10;;;;;;;9.47;72.43;100608.60;139039;1190;108387;-82
2021/10/18 03:36:34;;;;;;;17.80;10.30;;;;;;;9.49;72.33;100610.41;139081;1190;108488;-78
2021/10/18 03:39:39;;;;;;;16.30;9.60;;;;;;;9.46;72.98;100612.75;139052;1190;108330;-79
2021/10/18 03:42:45;;;;;;;20.20;11.30;;;;;;;9.46;72.67;100614.03;139116;1191;108417;-80
2021/10/18 03:45:50;;;;;;;19.40;12.00;;;;;;;9.49;73.02;100620.83;139136;1190;108556;-79
2021/10/18 03:48:56;;;;;;;17.50;10.40;;;;;;;9.43;73.04;100626.89;139106;1190;108465;-81
2021/10/18 03:52:01;;;;;;;16.00;10.10;;;;;;;9.40;73.39;100631.06;139159;1190;108446;-83
2021/10/18 03:55:07;;;;;;;15.90;10.50;;;;;;;9.36;73.38;100635.63;139073;1190;108363;-81
2021/10/18 03:58:13;;;;;;;17.10;11.70;;;;;;;9.39;72.96;100635.20;139090;1190;107431;-82
2021/10/18 04:01:18;;;;;;;19.70;12.60;;;;;;;9.45;73.20;100636.98;139136;1190;108540;-80
2021/10/18 04:04:24;;;;;;;21.50;13.30;;;;;;;9.46;73.81;100639.02;139128;1190;108463;-81
2021/10/18 04:07:29;;;;;;;17.00;10.50;;;;;;;9.37;73.56;100640.40;139079;1190;108432;-80
2021/10/18 04:10:37;;;;;;;18.50;10.40;;;;;;;9.36;73.64;100647.20;139113;1190;108493;-79
2021/10/18 04:13:42;;;;;;;22.20;13.40;;;;;;;9.39;74.36;100654.59;139125;1190;108486;-79
2021/10/18 04:16:48;;;;;;;21.30;13.50;;;;;;;9.35;74.28;100653.15;139019;1181;108335;-77
2021/10/18 04:19:53;;;;;;;21.10;13.50;;;;;;;9.38;73.89;100655.41;138998;1190;108460;-80
2021/10/18 04:22:58;;;;;;;21.10;13.80;;;;;;;9.42;74.19;100655.05;139060;1190;108461;-80
2021/10/18 04:26:06;;;;;;;21.30;12.80;;;;;;;9.37;73.83;100655.41;139097;1191;108539;-79
2021/10/18 04:29:11;;;;;;;19.10;11.50;;;;;;;9.41;73.79;100657.91;139211;1190;108394;-80
2021/10/18 04:32:17;;;;;;;19.80;13.20;;;;;;;9.45;73.83;100659.70;139185;1190;108462;-80
2021/10/18 04:35:23;;;;;;;21.70;14.30;;;;;;;9.46;74.56;100664.08;139150;1190;108372;-81
2021/10/18 04:38:29;;;;;;;20.90;14.20;;;;;;;9.41;74.74;100663.06;139225;1190;108589;-81
2021/10/18 04:41:34;;;;;;;23.80;15.00;;;;;;;9.35;74.85;100664.86;139200;1190;108683;-81
2021/10/18 04:44:40;;;;;;;22.80;13.40;;;;;;;9.27;75.17;100665.56;139254;1190;108420;-81
2021/10/18 04:47:48;;;;;;;19.20;11.90;;;;;;;9.25;74.44;100667.85;139070;1190;107694;-81
2021/10/18 04:50:53;;;;;;;22.00;13.80;;;;;;;9.29;74.68;100673.27;139287;1190;108200;-79
2021/10/18 04:53:58;;;;;;;22.00;14.50;;;;;;;9.33;74.99;100672.63;139074;1190;108414;-79
2021/10/18 04:57:04;;;;;;;25.10;14.80;;;;;;;9.36;74.69;100673.48;139196;1190;108467;-81
2021/10/18 05:00:13;;;;;;;25.20;15.70;;;;;;;9.42;74.59;100679.52;139131;1190;108334;-81
2021/10/18 05:03:18;;;;;;;21.60;13.70;;;;;;;9.44;74.54;100683.02;139008;1196;108549;-81
2021/10/18 05:06:24;;;;;;;21.00;12.90;;;;;;;9.49;74.77;100684.81;139103;1193;108298;-77
2021/10/18 05:09:29;;;;;;;25.30;13.70;;;;;;;9.51;74.85;100687.48;139168;1190;108587;-77
2021/10/18 05:12:34;;;;;;;19.70;13.80;;;;;;;9.50;74.63;100692.50;139001;1190;108479;-79
2021/10/18 05:15:40;;;;;;;21.30;14.40;;;;;;;9.54;74.68;100697.30;138978;1190;108439;-79
2021/10/18 05:18:45;;;;;;;26.20;14.50;;;;;;;9.58;74.44;100702.09;139025;1190;108516;-79
2021/10/18 05:21:51;;;;;;;24.30;14.90;;;;;;;9.56;74.82;100707.23;139170;1190;108445;-79
2021/10/18 05:24:56;;;;;;;23.30;14.60;;;;;;;9.52;75.11;100716.70;138950;1190;108486;-78
2021/10/18 05:28:02;;;;;;;18.90;11.90;;;;;;;9.41;75.30;100718.66;138981;1190;108134;-78
2021/10/18 05:31:07;;;;;;;25.00;15.10;;;;;;;9.42;75.21;100723.01;139068;1193;107365;-80
2021/10/18 05:34:13;;;;;;;26.00;16.00;;;;;;;9.43;75.65;100722.92;139249;1190;108389;-80
2021/10/18 05:37:18;;;;;;;22.40;14.90;;;;;;;9.41;75.79;100729.16;139312;1190;108403;-78
2021/10/18 05:40:24;;;;;;;23.50;16.00;;;;;;;9.39;75.38;100733.26;139022;1190;108453;-77
2021/10/18 05:43:30;;;;;;;24.20;14.20;;;;;;;9.38;75.72;100735.92;139009;1190;108420;-75
2021/10/18 05:46:35;;;;;;;22.00;14.90;;;;;;;9.41;75.46;100739.95;139015;1190;108481;-75
2021/10/18 05:49:41;;;;;;;23.80;14.70;;;;;;;9.51;76.06;100745.35;138970;1190;108653;-75
2021/10/18 05:52:46;;;;;;;28.20;18.40;;;;;;;9.56;75.55;100748.25;138919;1187;108565;-74
2021/10/18 05:55:51;;;;;;;36.90;24.70;;;;;;;9.62;75.91;100751.99;138952;1190;108499;-72
2021/10/18 05:58:57;;;;;;;28.50;19.70;;;;;;;9.59;75.92;100756.52;138949;1190;108856;-73
2021/10/18 06:02:03;;;;;;;22.60;14.70;;;;;;;9.58;75.40;100754.67;138944;1190;108395;-73
2021/10/18 06:05:10;;;;;;;25.00;12.90;;;;;;;9.62;75.59;100759.59;138964;1193;107655;-75
2021/10/18 06:08:17;;;;;;;24.20;15.40;;;;;;;9.69;75.54;100760.07;138921;1190;108602;-75
2021/10/18 06:11:22;;;;;;;23.40;16.10;;;;;;;9.77;75.63;100764.91;139017;1193;107918;-75
2021/10/18 06:14:28;;;;;;;23.10;15.00;;;;;;;9.81;75.63;100770.58;138981;1197;108559;-73
2021/10/18 06:17:33;;;;;;;24.40;15.30;;;;;;;9.90;75.48;100774.27;139002;1183;108693;-75
2021/10/18 06:20:39;;;;;;;24.90;15.10;;;;;;;9.97;75.23;100774.30;139013;1192;108585;-75
2021/10/18 06:23:45;;;;;;;24.80;14.30;;;;;;;10.02;75.32;100778.17;138976;1190;108265;-77
2021/10/18 06:26:51;;;;;;;21.80;14.20;;;;;;;10.09;75.25;100783.27;139050;1190;107878;-76
2021/10/18 06:29:56;;;;;;;21.40;14.40;;;;;;;10.18;75.14;100785.96;139413;1190;108336;-76
2021/10/18 06:33:03;;;;;;;24.20;16.40;;;;;;;10.30;75.24;100793.65;139023;1190;107523;-75
2021/10/18 06:36:09;;;;;;;24.20;15.70;;;;;;;10.34;75.40;100796.83;138994;1192;108456;-75
2021/10/18 06:39:14;;;;;;;23.10;15.40;;;;;;;10.32;75.64;100799.91;138962;1193;108259;-75
2021/10/18 06:42:20;;;;;;;29.90;21.10;;;;;;;10.27;75.50;100797.96;138929;1193;108736;-73
2021/10/18 06:45:25;;;;;;;22.20;15.20;;;;;;;10.21;75.85;100802.25;138930;1193;108298;-73
2021/10/18 06:48:32;;;;;;;22.00;14.80;;;;;;;10.19;75.72;100806.48;138986;1192;108630;-74
2021/10/18 06:51:45;;;;;;;21.50;14.70;;;;;;;10.27;76.11;100803.86;138957;1192;108580;-75
2021/10/18 06:54:50;;;;;;;49.00;26.40;;;;;;;10.32;76.06;100802.36;139235;1192;107079;-79
2021/10/18 06:57:56;;;;;;;26.90;16.60;;;;;;;10.34;75.80;100802.58;138936;1193;108440;-78
2021/10/18 07:01:01;;;;;;;20.50;13.90;;;;;;;10.40;76.04;100809.65;138930;1192;108584;-77
2021/10/18 07:04:09;;;;;;;23.60;13.90;;;;;;;10.45;75.99;100818.44;138996;1191;108600;-74
2021/10/18 07:07:14;;;;;;;21.90;14.10;;;;;;;10.50;75.91;100822.63;138960;1193;109292;-72
2021/10/18 07:10:20;;;;;;;22.00;14.00;;;;;;;10.58;75.12;100825.95;139050;1193;108610;-73
2021/10/18 07:13:26;;;;;;;32.20;15.20;;;;;;;10.69;75.50;100828.17;139082;1193;108365;-74
2021/10/18 07:16:31;;;;;;;21.10;14.10;;;;;;;10.65;75.37;100828.60;139043;1190;108625;-74
2021/10/18 07:19:36;;;;;;;20.80;13.10;;;;;;;10.65;75.71;100831.06;139002;1190;108457;-75
2021/10/18 07:22:43;;;;;;;19.00;12.00;;;;;;;10.68;75.83;100837.73;138989;1190;107378;-74
2021/10/18 07:25:49;;;;;;;18.90;13.40;;;;;;;10.75;75.25;100842.77;139191;1190;106979;-74
2021/10/18 07:28:55;;;;;;;19.80;12.90;;;;;;;10.78;75.29;100844.11;139087;1190;108535;-74
2021/10/18 07:32:00;;;;;;;21.40;14.10;;;;;;;10.80;75.01;100844.98;139024;1193;108378;-73
2021/10/18 07:35:07;;;;;;;20.30;13.40;;;;;;;10.81;74.92;100851.34;139095;1191;108657;-74
2021/10/18 07:38:12;;;;;;;18.80;12.30;;;;;;;10.79;75.11;100854.69;139165;1183;108474;-74
2021/10/18 07:41:18;;;;;;;15.30;11.30;;;;;;;10.87;75.09;100856.62;139113;1190;108497;-74
2021/10/18 07:44:25;;;;;;;18.60;11.90;;;;;;;10.91;74.95;100854.29;139161;1190;108408;-73
2021/10/18 07:47:31;;;;;;;16.90;10.80;;;;;;;10.92;75.01;100852.77;139096;1183;108533;-74
2021/10/18 07:50:36;;;;;;;16.20;10.60;;;;;;;11.04;74.85;100849.45;138994;1191;108634;-73
2021/10/18 07:53:42;;;;;;;16.90;12.00;;;;;;;11.18;74.74;100853.41;138999;1193;108665;-75
2021/10/18 07:56:47;;;;;;;18.60;12.40;;;;;;;11.29;75.07;100856.17;138958;1183;108587;-74
2021/10/18 07:59:52;;;;;;;17.40;12.40;;;;;;;11.37;74.46;100852.73;139050;1192;108684;-76
2021/10/18 08:02:58;;;;;;;16.50;10.70;;;;;;;11.32;74.71;100846.94;139051;1183;108348;-77
2021/10/18 08:06:03;;;;;;;12.60;9.10;;;;;;;11.39;74.21;100848.64;139004;1183;108619;-76
2021/10/18 08:09:10;;;;;;;18.30;12.20;;;;;;;11.49;74.37;100856.66;138977;1190;106899;-77
2021/10/18 08:12:15;;;;;;;20.30;12.30;;;;;;;11.60;74.11;100859.34;138961;1191;108468;-73
2021/10/18 08:15:21;;;;;;;16.90;11.00;;;;;;;11.63;73.83;100861.02;138998;1183;108389;-73
2021/10/18 08:18:26;;;;;;;17.40;10.50;;;;;;;11.55;73.87;100869.00;139049;1183;107604;-76
2021/10/18 08:21:32;;;;;;;13.80;9.80;;;;;;;11.52;73.88;100877.68;139024;1191;108480;-77
2021/10/18 08:24:37;;;;;;;20.60;11.00;;;;;;;11.56;73.70;100877.16;138969;1191;108450;-77
2021/10/18 08:27:43;;;;;;;16.10;9.90;;;;;;;11.75;73.98;100877.54;138958;1191;108332;-76
2021/10/18 08:30:48;;;;;;;15.20;9.40;;;;;;;11.93;73.81;100871.40;138961;1183;108433;-76
2021/10/18 08:33:57;;;;;;;12.80;8.90;;;;;;;11.98;72.56;100872.27;138999;1190;108452;-80
2021/10/18 08:37:02;;;;;;;12.80;9.30;;;;;;;11.80;71.70;100872.42;138759;1184;108536;-76
2021/10/18 08:40:10;;;;;;;13.80;8.70;;;;;;;11.76;72.11;100877.95;138858;1190;108515;-74
2021/10/18 08:43:28;;;;;;;11.60;8.40;;;;;;;11.76;71.65;100876.63;139061;1184;108597;-75
2021/10/18 08:46:33;;;;;;;11.60;8.00;;;;;;;11.89;72.71;100878.38;138917;1183;108402;-76
2021/10/18 08:49:39;;;;;;;13.00;7.70;;;;;;;12.09;72.36;100870.88;139057;1190;108402;-76
2021/10/18 08:52:44;;;;;;;10.20;7.50;;;;;;;12.14;71.81;100864.16;138992;1192;108653;-76
2021/10/18 08:55:50;;;;;;;12.30;7.40;;;;;;;12.16;71.75;100874.09;138979;1193;108544;-76
2021/10/18 08:58:55;;;;;;;12.60;7.20;;;;;;;12.31;72.38;100870.07;139092;1183;108252;-77
2021/10/18 09:02:01;;;;;;;13.70;8.00;;;;;;;12.54;71.86;100873.34;138969;1190;108658;-75
2021/10/18 09:05:09;;;;;;;11.20;7.20;;;;;;;12.66;71.95;100878.08;139026;1183;108427;-74
2021/10/18 09:08:34;;;;;;;10.90;7.10;;;;;;;12.69;70.57;100884.58;138951;1183;108451;-77
2021/10/18 09:11:40;;;;;;;11.40;6.90;;;;;;;12.72;71.05;100884.04;139030;1183;108927;-76
2021/10/18 09:14:45;;;;;;;9.90;6.80;;;;;;;12.89;71.27;100877.91;138924;1183;108290;-76
2021/10/18 09:17:56;;;;;;;8.20;5.70;;;;;;;12.91;69.73;100878.97;139010;1193;108543;-78
2021/10/18 09:21:01;;;;;;;10.20;6.10;;;;;;;12.80;69.27;100876.83;138949;1192;107980;-78
2021/10/18 09:24:09;;;;;;;12.10;7.00;;;;;;;12.64;69.27;100875.05;138954;1183;108774;-76
2021/10/18 09:27:19;;;;;;;9.50;5.90;;;;;;;12.63;70.46;100873.91;139004;1183;108546;-76
2021/10/18 09:30:39;;;;;;;14.10;7.70;;;;;;;12.81;69.88;100873.15;139040;1193;108563;-76
2021/10/18 09:33:48;;;;;;;13.00;7.30;;;;;;;12.86;69.24;100872.46;139038;1189;108559;-76
2021/10/18 09:37:04;;;;;;;18.00;9.60;;;;;;;12.79;69.74;100872.65;138998;1192;108532;-75
2021/10/18 09:40:29;;;;;;;10.10;5.30;;;;;;;12.90;70.17;100866.03;138978;1183;108535;-76
2021/10/18 09:43:37;;;;;;;8.90;4.60;;;;;;;13.18;70.09;100865.54;138947;1183;108411;-76
2021/10/18 09:47:22;;;;;;;6.80;4.60;;;;;;;13.36;69.35;100869.60;138989;1183;108422;-77
2021/10/18 10:52:57;;;;;;;5.80;4.00;;;;;;;13.03;65.81;100885.45;138922;1189;108438;-74
2021/10/18 10:56:21;;;;;;;5.40;3.80;;;;;;;12.94;65.40;100883.82;138996;1183;108331;-74
2021/10/18 10:59:28;;;;;;;6.40;4.10;;;;;;;12.70;64.90;100884.75;138945;1191;108444;-74
2021/10/18 11:02:35;;;;;;;8.00;4.30;;;;;;;12.49;64.53;100887.93;139064;1183;107641;-74
2021/10/18 11:05:57;;;;;;;7.30;3.70;;;;;;;12.29;64.91;100890.70;138936;1192;108491;-73
2021/10/18 11:09:02;;;;;;;5.70;4.00;;;;;;;12.24;65.25;100890.21;138985;1193;108480;-74
2021/10/18 11:12:10;;;;;;;6.00;3.50;;;;;;;12.29;65.41;100887.85;138960;1192;109412;-73
2021/10/18 11:15:18;;;;;;;8.50;5.30;;;;;;;12.51;65.64;100885.59;139024;1184;108599;-77
2021/10/18 11:18:27;;;;;;;7.20;4.60;;;;;;;12.70;65.29;100882.23;138917;1183;108455;-75
2021/10/18 11:21:33;;;;;;;11.30;6.20;;;;;;;12.87;64.66;100879.90;139000;1192;108468;-75
2021/10/18 11:24:43;;;;;;;9.00;5.40;;;;;;;12.98;64.66;100876.29;138998;1184;108356;-73
2021/10/18 11:27:55;;;;;;;6.50;4.10;;;;;;;13.06;64.08;100875.69;138982;1190;108540;-76
2021/10/18 11:31:02;;;;;;;5.40;3.70;;;;;;;13.00;64.59;100864.86;139031;1193;108646;-74
2021/10/18 11:34:12;;;;;;;9.40;5.30;;;;;;;13.02;63.80;100867.38;138997;1183;108654;-74
2021/10/18 11:37:17;;;;;;;7.80;4.60;;;;;;;13.09;64.97;100864.48;139002;1184;108454;-73
2021/10/18 11:40:26;;;;;;;8.20;4.90;;;;;;;13.18;64.11;100860.37;138994;1193;107738;-74
2021/10/18 11:43:35;;;;;;;7.70;4.90;;;;;;;13.21;64.09;100864.36;138984;1193;108542;-76
2021/10/18 11:46:40;;;;;;;9.40;5.20;;;;;;;13.34;64.45;100866.49;138993;1183;108368;-76
2021/10/18 11:50:05;;;;;;;7.00;4.50;;;;;;;13.48;62.87;100864.98;138916;1192;108560;-77
2021/10/18 11:53:15;;;;;;;5.60;4.20;;;;;;;13.35;61.85;100870.49;138948;1192;108952;-73
2021/10/18 11:56:22;;;;;;;6.30;4.60;;;;;;;13.14;62.88;100877.77;138981;1193;108630;-75
2021/10/18 11:59:28;;;;;;;5.70;4.50;;;;;;;13.01;64.08;100877.09;139016;1193;108469;-78
2021/10/18 12:02:33;;;;;;;7.50;4.80;;;;;;;13.07;64.09;100875.42;138971;1184;108490;-77
2021/10/18 12:05:42;;;;;;;7.70;5.20;;;;;;;13.11;63.95;100872.11;138890;1194;108423;-76
2021/10/18 12:08:54;;;;;;;8.80;5.80;;;;;;;13.18;64.01;100866.98;138977;1190;108406;-77
2021/10/18 12:12:13;;;;;;;8.70;6.00;;;;;;;13.19;63.89;100876.20;138990;1193;108823;-78
2021/10/18 12:15:19;;;;;;;11.80;6.40;;;;;;;13.06;64.06;100872.64;139003;1184;108426;-77
2021/10/18 12:18:26;;;;;;;9.40;6.00;;;;;;;12.98;64.21;100872.56;138937;1191;108490;-79
2021/10/18 12:21:35;;;;;;;6.70;5.20;;;;;;;12.89;64.44;100881.13;139059;1184;108463;-77
2021/10/18 12:24:41;;;;;;;9.00;5.20;;;;;;;12.83;64.59;100882.05;138971;1184;108389;-78
2021/10/18 12:27:46;;;;;;;8.10;6.00;;;;;;;12.83;64.54;100882.45;138948;1196;108606;-77
2021/10/18 12:30:52;;;;;;;7.60;5.90;;;;;;;12.85;64.83;100887.45;138978;1184;109355;-76
2021/10/18 12:34:18;;;;;;;9.30;6.90;;;;;;;12.86;64.10;100886.39;139045;1193;108266;-81
2021/10/18 12:37:30;;;;;;;31.70;13.50;;;;;;;12.85;64.73;100887.58;139115;1194;107578;-79
2021/10/18 12:40:36;;;;;;;12.20;9.30;;;;;;;12.89;64.70;100885.91;139166;1184;108459;-77
2021/10/18 12:43:41;;;;;;;101.00;50.40;;;;;;;12.98;64.84;100884.72;139030;1184;108715;-77
2021/10/18 12:46:51;;;;;;;77.60;39.20;;;;;;;13.03;64.38;100881.52;139077;1184;108361;-77
2021/10/18 12:50:07;;;;;;;40.40;25.10;;;;;;;13.05;64.59;100872.77;139025;1184;107781;-78
2021/10/18 12:53:12;;;;;;;46.80;29.60;;;;;;;13.04;64.21;100878.73;139054;1183;108557;-79
2021/10/18 12:56:27;;;;;;;43.70;28.30;;;;;;;13.08;64.75;100874.09;139003;1192;108559;-77
2021/10/18 12:59:34;;;;;;;13.20;8.80;;;;;;;13.11;64.36;100871.81;139031;1183;108342;-81
2021/10/18 13:02:43;;;;;;;65.70;45.30;;;;;;;12.98;64.31;100880.23;139016;1193;108624;-77
2021/10/18 13:05:55;;;;;;;19.00;14.10;;;;;;;12.88;64.76;100882.26;138980;1193;108436;-79
2021/10/18 13:09:00;;;;;;;15.40;11.20;;;;;;;12.79;64.88;100882.80;139122;1183;108598;-79
2021/10/18 13:12:06;;;;;;;13.10;8.30;;;;;;;12.73;64.99;100885.15;139096;1183;108143;-79
2021/10/18 13:15:16;;;;;;;9.50;7.00;;;;;;;12.65;65.04;100885.44;139139;1193;108396;-78
2021/10/18 13:18:22;;;;;;;13.00;8.90;;;;;;;12.60;65.14;100885.39;139130;1192;107486;-76
2021/10/18 13:21:30;;;;;;;22.70;17.10;;;;;;;12.70;65.29;100882.08;138977;1184;108545;-76
2021/10/18 13:24:47;;;;;;;10.90;8.90;;;;;;;12.83;65.16;100882.43;138908;1198;106148;-77
2021/10/18 13:27:53;;;;;;;14.80;10.70;;;;;;;12.88;64.97;100880.71;138964;1184;107520;-78
2021/10/18 13:31:00;;;;;;;50.80;40.90;;;;;;;12.97;64.96;100890.17;139163;1189;108756;-81
2021/10/18 13:34:06;;;;;;;13.70;10.20;;;;;;;13.10;64.46;100894.34;139044;1193;108407;-79
2021/10/18 13:37:12;;;;;;;10.40;8.30;;;;;;;13.05;64.17;100897.05;139123;1193;107471;-76
2021/10/18 13:40:21;;;;;;;10.70;7.80;;;;;;;12.93;64.74;100899.48;139085;1190;108455;-81
2021/10/18 13:43:27;;;;;;;10.00;7.60;;;;;;;12.92;65.10;100901.11;139153;1193;108465;-80
2021/10/18 13:46:32;;;;;;;10.50;7.30;;;;;;;12.88;64.58;100906.15;139206;1192;108394;-78
2021/10/18 13:49:38;;;;;;;20.30;16.80;;;;;;;12.80;64.67;100910.42;139116;1184;108409;-77
2021/10/18 13:52:44;;;;;;;13.60;10.10;;;;;;;12.76;64.91;100908.83;139065;1183;108583;-77
2021/10/18 13:55:49;;;;;;;13.70;8.90;;;;;;;12.73;64.68;100910.85;139021;1193;108450;-80
2021/10/18 13:58:55;;;;;;;12.20;7.00;;;;;;;12.67;65.09;100915.78;139131;1184;108448;-78
2021/10/18 14:02:00;;;;;;;14.50;9.40;;;;;;;12.59;65.05;100923.65;139015;1184;108190;-78
2021/10/18 14:05:06;;;;;;;14.00;9.90;;;;;;;12.53;65.15;100928.55;138978;1183;108711;-78
2021/10/18 14:08:12;;;;;;;29.50;21.00;;;;;;;12.48;65.22;100925.30;139015;1190;108494;-77
2021/10/18 14:11:18;;;;;;;47.10;35.60;;;;;;;12.50;65.43;100924.58;139048;1183;108339;-77
2021/10/18 14:14:23;;;;;;;120.80;93.20;;;;;;;12.47;65.29;100925.77;139056;1184;108354;-76
2021/10/18 14:17:28;;;;;;;32.40;23.10;;;;;;;12.47;65.37;100918.11;139058;1183;108350;-76
2021/10/18 14:20:34;;;;;;;28.00;20.20;;;;;;;12.45;65.33;100918.25;139058;1184;108606;-79
2021/10/18 14:23:39;;;;;;;82.60;55.80;;;;;;;12.40;65.41;100912.70;139014;1184;108549;-77
2021/10/18 14:26:45;;;;;;;283.80;206.30;;;;;;;12.31;65.65;100910.91;139051;1183;108556;-78
2021/10/18 14:29:50;;;;;;;146.20;102.30;;;;;;;12.30;65.71;100907.59;139056;1184;108359;-77
2021/10/18 14:32:57;;;;;;;95.40;69.90;;;;;;;12.31;65.67;100906.11;138983;1190;108614;-77
2021/10/18 14:36:02;;;;;;;108.30;78.20;;;;;;;12.29;65.69;100902.13;139041;1190;108482;-77
2021/10/18 14:39:08;;;;;;;223.10;127.30;;;;;;;12.28;65.79;100899.79;138998;1183;108384;-78
2021/10/18 14:42:13;;;;;;;227.00;150.20;;;;;;;12.29;65.93;100894.13;139011;1184;108415;-77
2021/10/18 14:45:19;;;;;;;61.90;38.00;;;;;;;12.36;65.82;100896.32;139185;1190;108848;-78
2021/10/18 14:48:24;;;;;;;50.80;30.30;;;;;;;12.39;65.82;100897.96;139001;1190;108377;-77
2021/10/18 14:51:30;;;;;;;21.10;14.70;;;;;;;12.42;65.69;100889.53;139004;1190;108423;-77
2021/10/18 14:54:35;;;;;;;18.80;12.30;;;;;;;12.40;65.96;100900.21;139005;1183;107543;-76
2021/10/18 14:57:40;;;;;;;26.70;16.70;;;;;;;12.36;65.93;100906.80;139096;1183;107292;-83
2021/10/18 15:00:46;;;;;;;24.90;14.20;;;;;;;12.35;66.03;100909.23;139102;1184;108556;-78
2021/10/18 15:03:53;;;;;;;17.30;11.10;;;;;;;12.29;66.23;100907.31;139356;1190;107548;-79